createdAt,value
2022-11-11T00:00:39.173Z,100735.09
2022-11-11T00:03:25.733Z,100739.38
2022-11-11T00:06:16.414Z,100740.44
2022-11-11T00:11:51.175Z,100740.78
2022-11-11T00:14:38.085Z,100746.59
2022-11-11T00:17:43.154Z,100750.03
2022-11-11T00:20:48.175Z,100756.06
2022-11-11T00:23:53.645Z,100765.41
2022-11-11T00:26:40.739Z,100759.97
2022-11-11T00:29:27.388Z,100753.22
2022-11-11T00:32:31.413Z,100765.41
2022-11-11T00:35:36.164Z,100757.28
2022-11-11T00:38:41.837Z,100748.41
2022-11-11T00:41:28.564Z,100748.81
2022-11-11T00:44:14.995Z,100753.31
2022-11-11T00:47:19.892Z,100742.50
2022-11-11T00:50:29.421Z,100753.47
2022-11-11T00:53:26.276Z,100757.81
2022-11-11T00:56:14.274Z,100760.22
2022-11-11T00:59:00.525Z,100759.97
2022-11-11T01:01:46.822Z,100765.03
2022-11-11T01:04:33.275Z,100760.09
2022-11-11T01:07:19.636Z,100752.53
2022-11-11T01:10:06.808Z,100756.91
2022-11-11T01:13:12.813Z,100760.28
2022-11-11T01:16:02.395Z,100757.84
2022-11-11T01:18:49.656Z,100761.16
2022-11-11T01:21:36.235Z,100756.81
2022-11-11T01:24:23.266Z,100760.91
2022-11-11T01:27:09.814Z,100755.53
2022-11-11T01:29:56.418Z,100761.09
2022-11-11T01:32:42.967Z,100767.62
2022-11-11T01:35:29.366Z,100754.25
2022-11-11T01:38:15.702Z,100758.84
2022-11-11T01:41:22.840Z,100756.88
2022-11-11T01:44:11.930Z,100755.50
2022-11-11T01:47:02.844Z,100761.38
2022-11-11T01:49:59.042Z,100754.66
2022-11-11T01:52:45.925Z,100753.81
2022-11-11T01:55:32.817Z,100759.31
2022-11-11T01:58:19.980Z,100757.84
2022-11-11T02:01:07.175Z,100753.28
2022-11-11T02:04:14.054Z,100746.03
2022-11-11T02:07:06.099Z,100741.78
2022-11-11T02:09:53.458Z,100750.38
2022-11-11T02:12:58.691Z,100759.00
2022-11-11T02:15:45.825Z,100757.91
2022-11-11T02:18:33.670Z,100763.19
2022-11-11T02:21:33.416Z,100767.66
2022-11-11T02:24:21.340Z,100763.13
2022-11-11T02:27:09.564Z,100765.56
2022-11-11T02:29:57.212Z,100765.50
2022-11-11T02:32:45.402Z,100772.72
2022-11-11T02:35:34.760Z,100768.28
2022-11-11T02:38:21.254Z,100762.69
2022-11-11T02:41:26.606Z,100760.19
2022-11-11T02:44:13.110Z,100777.31
2022-11-11T02:46:59.437Z,100782.37
2022-11-11T02:49:45.874Z,100776.59
2022-11-11T02:52:32.400Z,100787.00
2022-11-11T02:55:18.772Z,100787.25
2022-11-11T02:58:05.209Z,100790.50
2022-11-11T03:00:51.559Z,100795.19
2022-11-11T03:03:37.896Z,100807.75
2022-11-11T03:06:24.734Z,100798.41
2022-11-11T03:09:10.922Z,100806.09
2022-11-11T03:11:57.832Z,100800.50
2022-11-11T03:14:44.388Z,100808.22
2022-11-11T03:17:40.103Z,100816.41
2022-11-11T03:20:45.566Z,100819.38
2022-11-11T03:23:32.012Z,100815.28
2022-11-11T03:26:19.702Z,100820.63
2022-11-11T03:29:06.414Z,100824.47
2022-11-11T03:31:52.553Z,100822.97
2022-11-11T03:34:39.223Z,100827.47
2022-11-11T03:37:44.006Z,100834.47
2022-11-11T03:40:30.535Z,100833.69
2022-11-11T03:43:19.186Z,100834.31
2022-11-11T03:46:06.395Z,100837.00
2022-11-11T03:48:52.624Z,100849.00
2022-11-11T03:51:38.744Z,100838.91
2022-11-11T03:54:25.096Z,100838.81
2022-11-11T03:57:30.158Z,100840.44
2022-11-11T04:00:20.313Z,100841.22
2022-11-11T04:03:28.626Z,100835.75
2022-11-11T04:06:33.663Z,100838.19
2022-11-11T04:09:38.577Z,100842.88
2022-11-11T04:12:25.384Z,100839.09
2022-11-11T04:15:30.455Z,100844.16
2022-11-11T04:18:16.876Z,100853.38
2022-11-11T04:21:22.167Z,100853.97
2022-11-11T04:24:35.416Z,100854.06
2022-11-11T04:27:21.924Z,100851.38
2022-11-11T04:30:09.066Z,100851.81
2022-11-11T04:32:55.826Z,100850.91
2022-11-11T04:35:42.171Z,100851.16
2022-11-11T04:38:46.945Z,100859.94
2022-11-11T04:41:53.882Z,100863.66
2022-11-11T04:44:58.918Z,100857.37
2022-11-11T04:47:59.376Z,100859.56
2022-11-11T04:50:45.799Z,100860.37
2022-11-11T04:53:32.344Z,100865.34
2022-11-11T04:56:37.454Z,100863.50
2022-11-11T04:59:23.864Z,100866.38
2022-11-11T05:02:28.997Z,100874.34
2022-11-11T05:05:15.654Z,100868.78
2022-11-11T05:08:20.866Z,100870.69
2022-11-11T05:11:07.715Z,100864.47
2022-11-11T05:14:13.850Z,100865.72
2022-11-11T05:17:18.856Z,100872.34
2022-11-11T05:20:24.081Z,100861.13
2022-11-11T05:23:10.606Z,100865.53
2022-11-11T05:25:57.137Z,100859.84
2022-11-11T05:28:43.474Z,100860.28
2022-11-11T05:31:30.589Z,100867.09
2022-11-11T05:34:16.974Z,100868.97
2022-11-11T05:37:03.797Z,100873.66
2022-11-11T05:39:50.233Z,100876.59
2022-11-11T05:42:38.040Z,100878.63
2022-11-11T05:45:27.650Z,100876.66
2022-11-11T05:48:14.228Z,100870.06
2022-11-11T05:51:00.846Z,100883.19
2022-11-11T05:53:47.347Z,100883.81
2022-11-11T05:56:33.785Z,100889.09
2022-11-11T05:59:20.639Z,100894.19
2022-11-11T06:02:07.056Z,100889.06
2022-11-11T06:04:54.505Z,100888.28
2022-11-11T06:07:41.159Z,100888.28
2022-11-11T06:10:33.554Z,100890.94
2022-11-11T06:13:19.725Z,100896.81
2022-11-11T06:16:06.619Z,100897.94
2022-11-11T06:18:53.276Z,100906.22
2022-11-11T06:21:57.677Z,100907.28
2022-11-11T06:25:03.783Z,100910.19
2022-11-11T06:27:50.315Z,100905.53
2022-11-11T06:30:49.535Z,100909.72
2022-11-11T06:33:37.965Z,100916.94
2022-11-11T06:36:24.324Z,100927.91
2022-11-11T06:39:10.823Z,100926.84
2022-11-11T06:41:56.956Z,100930.78
2022-11-11T06:44:43.244Z,100922.94
2022-11-11T06:47:29.715Z,100923.34
2022-11-11T06:50:16.377Z,100928.56
2022-11-11T06:53:07.822Z,100930.16
2022-11-11T06:55:54.165Z,100923.78
2022-11-11T06:58:41.085Z,100934.25
2022-11-11T07:01:27.638Z,100937.56
2022-11-11T07:04:14.169Z,100938.84
2022-11-11T07:07:00.432Z,100953.13
2022-11-11T07:09:46.438Z,100960.25
2022-11-11T07:12:33.076Z,100962.16
2022-11-11T07:15:19.135Z,100974.19
2022-11-11T07:18:05.984Z,100974.06
2022-11-11T07:20:52.475Z,100973.22
2022-11-11T07:23:38.633Z,100978.44
2022-11-11T07:26:25.056Z,100989.91
2022-11-11T07:29:12.788Z,100998.84
2022-11-11T07:31:59.016Z,100992.91
2022-11-11T07:34:45.402Z,100993.37
2022-11-11T07:37:32.266Z,100998.56
2022-11-11T07:40:19.626Z,101000.56
2022-11-11T07:43:06.015Z,101003.09
2022-11-11T07:45:52.559Z,101005.56
2022-11-11T07:48:38.863Z,101010.44
2022-11-11T07:51:25.573Z,101017.91
2022-11-11T07:54:12.066Z,101018.00
2022-11-11T07:56:58.603Z,101015.00
2022-11-11T07:59:45.147Z,101009.38
2022-11-11T08:02:31.842Z,101009.38
2022-11-11T08:05:18.318Z,101010.41
2022-11-11T08:08:08.955Z,101012.34
2022-11-11T08:10:55.796Z,101003.44
2022-11-11T08:13:44.133Z,101009.69
2022-11-11T08:16:30.716Z,101013.91
2022-11-11T08:19:17.324Z,101018.50
2022-11-11T08:22:04.815Z,101027.16
2022-11-11T08:25:07.002Z,101011.72
2022-11-11T08:27:58.423Z,101010.66
2022-11-11T08:30:45.139Z,101006.75
2022-11-11T08:33:44.404Z,101009.53
2022-11-11T08:36:31.214Z,101023.06
2022-11-11T08:39:17.803Z,101027.97
2022-11-11T08:42:04.407Z,101040.91
2022-11-11T08:44:52.107Z,101043.16
2022-11-11T08:47:39.357Z,101027.69
2022-11-11T08:50:26.522Z,101022.22
2022-11-11T08:53:13.456Z,101025.75
2022-11-11T08:56:02.900Z,101026.03
2022-11-11T08:58:49.905Z,101032.12
2022-11-11T09:01:37.041Z,101022.44
2022-11-11T09:04:43.756Z,101035.78
2022-11-11T09:07:29.973Z,101041.03
2022-11-11T09:10:16.389Z,101035.66
2022-11-11T09:13:03.120Z,101042.59
2022-11-11T09:15:49.608Z,101041.59
2022-11-11T09:18:36.901Z,101028.81
2022-11-11T09:21:24.719Z,101034.97
2022-11-11T09:24:11.757Z,101035.47
2022-11-11T09:26:58.746Z,101036.53
2022-11-11T09:29:46.068Z,101035.84
2022-11-11T09:32:33.347Z,101031.34
2022-11-11T09:35:20.620Z,101033.25
2022-11-11T09:38:07.274Z,101039.91
2022-11-11T09:41:16.797Z,101034.94
2022-11-11T09:44:04.623Z,101025.94
2022-11-11T09:47:13.462Z,101020.88
2022-11-11T09:50:02.865Z,101021.91
2022-11-11T09:53:15.634Z,101008.62
2022-11-11T09:56:29.761Z,101018.56
2022-11-11T09:59:22.037Z,101013.13
2022-11-11T10:02:31.746Z,101016.19
2022-11-11T10:05:25.950Z,101012.16
2022-11-11T10:08:26.395Z,101012.97
2022-11-11T10:11:21.635Z,101020.00
2022-11-11T10:14:08.173Z,101018.31
2022-11-11T10:17:07.876Z,101017.09
2022-11-11T10:20:15.856Z,101011.34
2022-11-11T10:23:09.004Z,101006.22
2022-11-11T10:25:57.095Z,101011.50
2022-11-11T10:28:45.625Z,101003.00
2022-11-11T10:31:31.856Z,100999.63
2022-11-11T10:34:19.577Z,100993.81
2022-11-11T10:37:19.268Z,100996.44
2022-11-11T10:40:11.146Z,100985.38
2022-11-11T10:42:57.460Z,100991.41
2022-11-11T10:46:19.196Z,100983.88
2022-11-11T10:49:17.934Z,100993.37
2022-11-11T10:52:16.629Z,100992.00
2022-11-11T10:55:07.738Z,100990.78
2022-11-11T10:58:27.747Z,101012.12
2022-11-11T11:01:17.411Z,100996.72
2022-11-11T11:04:15.105Z,100993.28
2022-11-11T11:07:04.230Z,100998.25
2022-11-11T11:09:57.365Z,100992.09
2022-11-11T11:12:54.150Z,100994.22
2022-11-11T11:15:45.193Z,100978.25
2022-11-11T11:18:31.967Z,100963.75
2022-11-11T11:21:18.324Z,100960.25
2022-11-11T11:24:05.352Z,100965.31
2022-11-11T11:26:59.613Z,100970.78
2022-11-11T11:29:46.225Z,100964.91
2022-11-11T11:32:33.211Z,100962.19
2022-11-11T11:35:31.846Z,100958.13
2022-11-11T11:38:19.302Z,100962.31
2022-11-11T11:41:05.719Z,100964.12
2022-11-11T11:43:51.931Z,100957.19
2022-11-11T11:46:40.043Z,100962.69
2022-11-11T11:50:06.753Z,100963.78
2022-11-11T11:53:17.505Z,100967.91
2022-11-11T11:56:03.838Z,100964.81
2022-11-11T11:59:05.994Z,100966.19
2022-11-11T12:02:07.924Z,100961.06
2022-11-11T12:05:07.963Z,100963.72
2022-11-11T12:08:06.858Z,100968.16
2022-11-11T12:10:59.077Z,100967.50
2022-11-11T12:14:25.277Z,100970.25
2022-11-11T12:17:27.008Z,100981.34
2022-11-11T12:20:16.795Z,100982.34
2022-11-11T12:23:23.941Z,100972.94
2022-11-11T12:26:39.675Z,100971.91
2022-11-11T12:30:05.997Z,100963.16
2022-11-11T12:33:23.094Z,100964.38
2022-11-11T12:36:30.515Z,100963.41
2022-11-11T12:39:38.807Z,100978.41
2022-11-11T12:42:39.899Z,100982.66
2022-11-11T12:45:50.188Z,100985.34
2022-11-11T12:48:58.305Z,100975.94
2022-11-11T12:51:57.335Z,100979.22
2022-11-11T12:54:51.647Z,100967.44
2022-11-11T12:58:06.315Z,100961.34
2022-11-11T13:01:09.831Z,100966.75
2022-11-11T13:04:57.165Z,100982.81
2022-11-11T13:08:11.017Z,100981.75
2022-11-11T13:11:00.137Z,100974.94
2022-11-11T13:14:23.974Z,100966.44
2022-11-11T13:17:14.028Z,100952.34
2022-11-11T13:20:05.807Z,100952.41
2022-11-11T13:22:52.626Z,100952.47
2022-11-11T13:25:49.458Z,100938.41
2022-11-11T13:28:41.346Z,100945.69
2022-11-11T13:31:34.584Z,100947.22
2022-11-11T13:34:21.963Z,100952.34
2022-11-11T13:37:10.903Z,100956.19
2022-11-11T13:40:19.594Z,100952.66
2022-11-11T13:43:28.024Z,100952.53
2022-11-11T13:46:36.086Z,100949.00
2022-11-11T13:49:26.627Z,100942.09
2022-11-11T13:52:32.913Z,100942.25
2022-11-11T13:55:29.575Z,100933.50
2022-11-11T13:58:27.994Z,100931.78
2022-11-11T14:01:14.440Z,100941.41
2022-11-11T14:04:04.516Z,100935.28
2022-11-11T14:06:52.954Z,100926.56
2022-11-11T14:10:01.297Z,100926.56
2022-11-11T14:12:49.853Z,100940.53
2022-11-11T14:15:53.327Z,100941.38
2022-11-11T14:18:41.609Z,100931.78
2022-11-11T14:21:58.609Z,100938.75
2022-11-11T14:24:46.900Z,100937.91
2022-11-11T14:27:34.127Z,100933.50
2022-11-11T14:30:37.943Z,100933.44
2022-11-11T14:33:50.221Z,100927.34
2022-11-11T14:36:51.985Z,100909.72
2022-11-11T14:39:52.426Z,100901.78
2022-11-11T14:42:38.974Z,100904.47
2022-11-11T14:45:31.368Z,100899.50
2022-11-11T14:48:48.488Z,100902.94
2022-11-11T14:51:39.715Z,100909.91
2022-11-11T14:54:35.707Z,100904.72
2022-11-11T14:57:25.465Z,100908.03
2022-11-11T15:00:21.066Z,100905.47
2022-11-11T15:03:07.627Z,100913.25
2022-11-11T15:06:19.555Z,100919.34
2022-11-11T15:09:24.732Z,100911.59
2022-11-11T15:12:57.436Z,100905.38
2022-11-11T15:16:02.695Z,100908.66
2022-11-11T15:18:55.056Z,100902.38
2022-11-11T15:22:07.544Z,100906.75
2022-11-11T15:25:26.352Z,100916.25
2022-11-11T15:28:36.028Z,100916.69
2022-11-11T15:31:31.946Z,100920.22
2022-11-11T15:34:31.458Z,100914.44
2022-11-11T15:37:19.645Z,100909.16
2022-11-11T15:40:07.029Z,100909.69
2022-11-11T15:42:54.117Z,100907.75
2022-11-11T15:45:40.484Z,100918.00
2022-11-11T15:48:44.277Z,100921.69
2022-11-11T15:51:32.329Z,100920.72
2022-11-11T15:54:26.610Z,100924.47
2022-11-11T15:57:33.154Z,100925.09
2022-11-11T16:00:25.587Z,100917.12
2022-11-11T16:03:30.887Z,100910.06
2022-11-11T16:06:17.487Z,100920.16
2022-11-11T16:09:04.456Z,100924.97
2022-11-11T16:11:52.216Z,100925.50
2022-11-11T16:14:44.122Z,100930.94
2022-11-11T16:17:40.737Z,100943.13
2022-11-11T16:20:40.920Z,100936.56
2022-11-11T16:23:28.201Z,100929.41
2022-11-11T16:26:16.017Z,100928.87
2022-11-11T16:29:02.828Z,100932.72
2022-11-11T16:31:49.168Z,100929.94
2022-11-11T16:34:38.496Z,100934.50
2022-11-11T16:37:24.975Z,100928.28
2022-11-11T16:40:32.556Z,100930.19
2022-11-11T16:43:24.948Z,100929.50
2022-11-11T16:46:16.425Z,100925.84
2022-11-11T16:49:37.825Z,100924.31
2022-11-11T16:52:25.383Z,100920.84
2022-11-11T16:55:19.327Z,100915.06
2022-11-11T16:58:22.822Z,100914.78
2022-11-11T17:01:09.523Z,100915.97
2022-11-11T17:04:00.397Z,100905.38
2022-11-11T17:07:00.103Z,100918.66
2022-11-11T17:09:46.437Z,100924.97
2022-11-11T17:12:33.122Z,100925.78
2022-11-11T17:15:21.336Z,100920.22
2022-11-11T17:18:09.409Z,100919.19
2022-11-11T17:20:57.038Z,100920.06
2022-11-11T17:23:43.457Z,100918.41
2022-11-11T17:26:29.848Z,100907.00
2022-11-11T17:29:16.326Z,100901.69
2022-11-11T17:32:02.735Z,100905.94
2022-11-11T17:34:48.968Z,100904.97
2022-11-11T17:37:38.403Z,100903.91
2022-11-11T17:40:24.858Z,100892.69
2022-11-11T17:43:11.205Z,100899.69
2022-11-11T17:46:01.425Z,100893.88
2022-11-11T17:48:47.667Z,100904.69
2022-11-11T17:51:34.535Z,100910.53
2022-11-11T17:54:20.856Z,100907.41
2022-11-11T17:57:07.307Z,100899.59
2022-11-11T17:59:53.678Z,100887.97
2022-11-11T18:02:40.228Z,100889.09
2022-11-11T18:05:26.596Z,100879.44
2022-11-11T18:08:13.217Z,100888.44
2022-11-11T18:11:09.106Z,100876.69
2022-11-11T18:13:55.875Z,100874.06
2022-11-11T18:16:42.197Z,100878.00
2022-11-11T18:19:28.685Z,100873.38
2022-11-11T18:22:15.095Z,100862.50
2022-11-11T18:25:01.731Z,100873.53
2022-11-11T18:27:49.155Z,100868.28
2022-11-11T18:30:36.298Z,100874.25
2022-11-11T18:33:23.266Z,100869.19
2022-11-11T18:36:12.474Z,100865.34
2022-11-11T18:38:59.159Z,100872.88
2022-11-11T18:41:45.486Z,100874.06
2022-11-11T18:44:31.754Z,100872.66
2022-11-11T18:47:18.256Z,100870.31
2022-11-11T18:50:04.882Z,100881.34
2022-11-11T18:52:51.414Z,100878.84
2022-11-11T18:55:37.735Z,100872.62
2022-11-11T18:58:24.033Z,100870.00
2022-11-11T19:01:11.510Z,100869.91
2022-11-11T19:04:03.051Z,100881.44
2022-11-11T19:06:49.907Z,100874.97
2022-11-11T19:09:36.355Z,100868.19
2022-11-11T19:12:22.725Z,100859.91
2022-11-11T19:15:09.898Z,100860.16
2022-11-11T19:17:55.958Z,100861.75
2022-11-11T19:20:42.424Z,100856.50
2022-11-11T19:23:30.414Z,100851.88
2022-11-11T19:26:18.004Z,100861.88
2022-11-11T19:29:06.159Z,100856.66
2022-11-11T19:31:52.636Z,100857.13
2022-11-11T19:34:39.672Z,100853.87
2022-11-11T19:37:25.763Z,100853.03
2022-11-11T19:40:12.656Z,100864.59
2022-11-11T19:42:58.926Z,100860.81
2022-11-11T19:45:45.665Z,100871.44
2022-11-11T19:48:32.275Z,100872.78
2022-11-11T19:51:20.954Z,100873.12
2022-11-11T19:54:11.162Z,100865.69
2022-11-11T19:56:57.516Z,100868.84
2022-11-11T19:59:44.133Z,100858.75
2022-11-11T20:02:31.586Z,100875.41
2022-11-11T20:05:18.513Z,100872.88
2022-11-11T20:08:04.893Z,100876.41
2022-11-11T20:10:51.596Z,100871.63
2022-11-11T20:13:42.456Z,100870.47
2022-11-11T20:16:29.239Z,100872.84
2022-11-11T20:19:15.583Z,100868.13
2022-11-11T20:22:06.142Z,100861.75
2022-11-11T20:24:52.654Z,100857.75
2022-11-11T20:27:39.245Z,100863.91
2022-11-11T20:30:25.643Z,100864.25
2022-11-11T20:33:12.345Z,100866.38
2022-11-11T20:36:02.853Z,100877.94
2022-11-11T20:38:49.006Z,100886.84
2022-11-11T20:41:36.366Z,100887.81
2022-11-11T20:44:22.615Z,100892.94
2022-11-11T20:47:09.333Z,100886.06
2022-11-11T20:49:56.213Z,100876.31
2022-11-11T20:52:42.684Z,100878.16
2022-11-11T20:55:29.343Z,100872.88
2022-11-11T20:58:15.789Z,100877.56
2022-11-11T21:01:07.165Z,100889.56
2022-11-11T21:03:58.249Z,100891.94
2022-11-11T21:06:44.606Z,100888.47
2022-11-11T21:09:30.944Z,100882.78
2022-11-11T21:12:17.649Z,100880.38
2022-11-11T21:15:04.294Z,100884.22
2022-11-11T21:17:50.717Z,100876.53
2022-11-11T21:20:37.127Z,100872.09
2022-11-11T21:23:23.762Z,100869.72
2022-11-11T21:26:11.045Z,100870.66
2022-11-11T21:28:57.576Z,100868.97
2022-11-11T21:31:44.736Z,100869.78
2022-11-11T21:34:31.323Z,100875.06
2022-11-11T21:37:17.507Z,100869.66
2022-11-11T21:40:03.908Z,100871.28
2022-11-11T21:42:55.234Z,100867.31
2022-11-11T21:45:44.269Z,100866.47
2022-11-11T21:48:31.074Z,100860.97
2022-11-11T21:51:25.914Z,100858.00
2022-11-11T21:54:13.936Z,100855.50
2022-11-11T21:57:00.352Z,100854.00
2022-11-11T21:59:46.563Z,100853.34
2022-11-11T22:02:32.807Z,100857.81
2022-11-11T22:05:19.087Z,100844.72
2022-11-11T22:08:05.866Z,100857.91
2022-11-11T22:10:52.352Z,100851.56
2022-11-11T22:13:39.353Z,100855.34
2022-11-11T22:16:27.925Z,100856.31
2022-11-11T22:19:16.182Z,100855.41
2022-11-11T22:22:02.348Z,100851.28
2022-11-11T22:24:48.616Z,100848.72
2022-11-11T22:27:35.368Z,100847.84
2022-11-11T22:30:21.792Z,100849.22
2022-11-11T22:33:08.045Z,100857.00
2022-11-11T22:35:58.457Z,100849.09
2022-11-11T22:38:45.259Z,100838.59
2022-11-11T22:41:34.175Z,100835.97
2022-11-11T22:44:21.355Z,100834.97
2022-11-11T22:47:07.585Z,100841.03
2022-11-11T22:49:53.878Z,100835.25
2022-11-11T22:52:40.208Z,100836.41
2022-11-11T22:55:26.577Z,100826.22
2022-11-11T22:58:12.844Z,100831.47
2022-11-11T23:01:07.685Z,100823.22
2022-11-11T23:03:55.587Z,100822.63
2022-11-11T23:06:42.428Z,100807.03
2022-11-11T23:09:29.256Z,100811.50
2022-11-11T23:12:15.517Z,100818.53
2022-11-11T23:15:01.875Z,100818.19
2022-11-11T23:17:48.434Z,100824.94
2022-11-11T23:20:34.786Z,100832.53
2022-11-11T23:23:21.287Z,100826.31
2022-11-11T23:26:12.993Z,100830.59
2022-11-11T23:29:00.093Z,100817.44
2022-11-11T23:31:46.815Z,100815.38
2022-11-11T23:34:33.134Z,100801.38
2022-11-11T23:37:19.379Z,100819.00
2022-11-11T23:40:06.924Z,100818.62
2022-11-11T23:42:53.256Z,100820.19
2022-11-11T23:45:40.096Z,100812.72
2022-11-11T23:48:27.616Z,100814.19
2022-11-11T23:51:14.327Z,100813.56
2022-11-11T23:54:00.885Z,100799.34
2022-11-11T23:56:47.407Z,100801.09
2022-11-11T23:59:33.815Z,100812.87
